Terminal Aerodrome Forecast
Issued by NWS

Home | Current Version | Previous Version | Graphics & Text | Print | Product List | Glossary Off
Versions: 1 2 3 4 5 6 7 8 9 10 11 12 13 14 15 16 17 18 19 20

000
FTUS43 KGRB 271300 AAA
TAFAUW
TAF AMD
KAUW 271328Z 2713/2812 31003KT P6SM SCT008 SCT100
     FM271600 29004KT P6SM SCT040 BKN140
     FM280000 VRB03KT P6SM SCT250
     FM280700 VRB03KT 4SM BR SCT250
      TEMPO 2808/2812 1SM BR=

USA.gov is the U.S. government's official web portal to all federal, state and local government web resources and services.